createdAt,value
2018-11-23T00:00:17.600Z,1012.68
2018-11-23T00:01:17.596Z,1012.67
2018-11-23T00:02:17.628Z,1012.70
2018-11-23T00:03:17.573Z,1012.68
2018-11-23T00:04:17.555Z,1012.67
2018-11-23T00:05:17.541Z,1012.60
2018-11-23T00:06:17.627Z,1012.62
2018-11-23T00:07:17.550Z,1012.59
2018-11-23T00:08:17.519Z,1012.64
2018-11-23T00:09:17.538Z,1012.63
2018-11-23T00:10:17.502Z,1012.62
2018-11-23T00:11:17.500Z,1012.65
2018-11-23T00:12:17.527Z,1012.62
2018-11-23T00:13:17.470Z,1012.62
2018-11-23T00:14:17.455Z,1012.57
2018-11-23T00:15:17.469Z,1012.61
2018-11-23T00:16:17.425Z,1012.63
2018-11-23T00:17:17.439Z,1012.59
2018-11-23T00:18:17.399Z,1012.59
2018-11-23T00:19:17.388Z,1012.60
2018-11-23T00:20:17.375Z,1012.57
2018-11-23T00:21:17.439Z,1012.55
2018-11-23T00:22:17.387Z,1012.49
2018-11-23T00:23:17.349Z,1012.52
2018-11-23T00:24:17.350Z,1012.52
2018-11-23T00:25:17.321Z,1012.53
2018-11-23T00:26:17.339Z,1012.54
2018-11-23T00:27:17.407Z,1012.52
2018-11-23T00:28:17.320Z,1012.53
2018-11-23T00:29:17.280Z,1012.50
2018-11-23T00:30:17.273Z,1012.51
2018-11-23T00:31:17.259Z,1012.54
2018-11-23T00:32:17.276Z,1012.56
2018-11-23T00:33:17.232Z,1012.57
2018-11-23T00:34:17.240Z,1012.59
2018-11-23T00:35:17.258Z,1012.60
2018-11-23T00:36:17.216Z,1012.62
2018-11-23T00:37:17.228Z,1012.60
2018-11-23T00:38:17.178Z,1012.63
2018-11-23T00:39:17.175Z,1012.66
2018-11-23T00:40:17.171Z,1012.66
2018-11-23T00:41:17.160Z,1012.64
2018-11-23T00:42:17.233Z,1012.66
2018-11-23T00:43:17.165Z,1012.71
2018-11-23T00:44:17.134Z,1012.68
2018-11-23T00:45:17.120Z,1012.72
2018-11-23T00:46:17.113Z,1012.68
2018-11-23T00:47:17.138Z,1012.70
2018-11-23T00:48:17.079Z,1012.76
2018-11-23T00:49:17.093Z,1012.72
2018-11-23T00:50:17.050Z,1012.76
2018-11-23T00:51:17.044Z,1012.78
2018-11-23T00:52:17.100Z,1012.81
2018-11-23T00:53:17.025Z,1012.83
2018-11-23T00:54:17.047Z,1012.81
2018-11-23T00:55:17.022Z,1012.83
2018-11-23T00:56:16.986Z,1012.77
2018-11-23T00:57:17.014Z,1012.76
2018-11-23T00:58:16.965Z,1012.84
2018-11-23T00:59:16.973Z,1012.77
2018-11-23T01:00:17.013Z,1012.76
2018-11-23T01:01:16.954Z,1012.76
2018-11-23T01:02:16.953Z,1012.82
2018-11-23T01:03:16.922Z,1012.82
2018-11-23T01:04:16.902Z,1012.80
2018-11-23T01:05:16.895Z,1012.80
2018-11-23T01:06:16.940Z,1012.83
2018-11-23T01:07:16.893Z,1012.87
2018-11-23T01:08:16.861Z,1012.91
2018-11-23T01:09:16.895Z,1012.88
2018-11-23T01:10:16.839Z,1012.87
2018-11-23T01:11:16.831Z,1012.86
2018-11-23T01:12:16.842Z,1012.88
2018-11-23T01:13:16.814Z,1012.87
2018-11-23T01:14:16.811Z,1012.86
2018-11-23T01:15:16.779Z,1012.89
2018-11-23T01:16:16.791Z,1012.88
2018-11-23T01:17:16.800Z,1012.84
2018-11-23T01:18:16.745Z,1012.84
2018-11-23T01:19:16.758Z,1012.83
2018-11-23T01:20:16.768Z,1012.80
2018-11-23T01:21:16.705Z,1012.80
2018-11-23T01:22:16.703Z,1012.82
2018-11-23T01:23:16.712Z,1012.78
2018-11-23T01:24:16.737Z,1012.73
2018-11-23T01:25:16.691Z,1012.72
2018-11-23T01:26:16.670Z,1012.70
2018-11-23T01:27:16.658Z,1012.72
2018-11-23T01:28:16.673Z,1012.71
2018-11-23T01:29:16.621Z,1012.69
2018-11-23T01:30:16.622Z,1012.71
2018-11-23T01:31:16.636Z,1012.70
2018-11-23T01:32:16.608Z,1012.68
2018-11-23T01:33:16.597Z,1012.69
2018-11-23T01:34:16.562Z,1012.72
2018-11-23T01:35:16.553Z,1012.73
2018-11-23T01:36:16.575Z,1012.73
2018-11-23T01:37:16.535Z,1012.69
2018-11-23T01:38:16.585Z,1012.68
2018-11-23T01:39:16.509Z,1012.66
2018-11-23T01:40:16.499Z,1012.60
2018-11-23T01:41:16.487Z,1012.59
2018-11-23T01:42:16.541Z,1012.56
2018-11-23T01:43:16.516Z,1012.57
2018-11-23T01:44:16.469Z,1012.57
2018-11-23T01:45:16.462Z,1012.57
2018-11-23T01:46:16.454Z,1012.66
2018-11-23T01:47:16.462Z,1012.62
2018-11-23T01:48:16.442Z,1012.62
2018-11-23T01:49:16.407Z,1012.64
2018-11-23T01:50:16.391Z,1012.63
2018-11-23T01:51:16.384Z,1012.67
2018-11-23T01:52:16.395Z,1012.68
2018-11-23T01:53:16.390Z,1012.68
2018-11-23T01:54:16.387Z,1012.68
2018-11-23T01:55:16.343Z,1012.68
2018-11-23T01:56:16.323Z,1012.69
2018-11-23T01:57:16.318Z,1012.76
2018-11-23T01:58:16.330Z,1012.68
2018-11-23T01:59:16.315Z,1012.67
2018-11-23T02:00:16.311Z,1012.72
2018-11-23T02:01:16.277Z,1012.65
2018-11-23T02:02:16.273Z,1012.67
2018-11-23T02:03:16.292Z,1012.67
2018-11-23T02:04:16.234Z,1012.66
2018-11-23T02:05:16.222Z,1012.64
2018-11-23T02:06:16.228Z,1012.68
2018-11-23T02:07:16.217Z,1012.64
2018-11-23T02:08:16.288Z,1012.58
2018-11-23T02:09:16.192Z,1012.58
2018-11-23T02:10:16.172Z,1012.60
2018-11-23T02:11:16.163Z,1012.63
2018-11-23T02:12:16.158Z,1012.65
2018-11-23T02:13:16.167Z,1012.62
2018-11-23T02:14:16.127Z,1012.63
2018-11-23T02:15:16.117Z,1012.62
2018-11-23T02:16:16.148Z,1012.60
2018-11-23T02:17:16.123Z,1012.61
2018-11-23T02:18:16.116Z,1012.56
2018-11-23T02:19:16.071Z,1012.56
2018-11-23T02:20:16.070Z,1012.57
2018-11-23T02:21:16.064Z,1012.63
2018-11-23T02:22:16.090Z,1012.64
2018-11-23T02:23:16.050Z,1012.62
2018-11-23T02:24:16.045Z,1012.56
2018-11-23T02:25:16.015Z,1012.57
2018-11-23T02:26:15.996Z,1012.51
2018-11-23T02:27:15.981Z,1012.49
2018-11-23T02:28:16.041Z,1012.44
2018-11-23T02:29:15.961Z,1012.46
2018-11-23T02:30:15.979Z,1012.48
2018-11-23T02:31:15.938Z,1012.52
2018-11-23T02:32:15.929Z,1012.47
2018-11-23T02:33:15.963Z,1012.51
2018-11-23T02:34:15.905Z,1012.46
2018-11-23T02:35:15.928Z,1012.46
2018-11-23T02:36:15.881Z,1012.47
2018-11-23T02:37:15.873Z,1012.51
2018-11-23T02:38:15.887Z,1012.46
2018-11-23T02:39:15.862Z,1012.47
2018-11-23T02:40:15.839Z,1012.47
2018-11-23T02:41:15.870Z,1012.50
2018-11-23T02:42:15.828Z,1012.51
2018-11-23T02:43:15.848Z,1012.48
2018-11-23T02:44:15.794Z,1012.53
2018-11-23T02:45:15.780Z,1012.54
2018-11-23T02:46:15.771Z,1012.55
2018-11-23T02:47:15.775Z,1012.53
2018-11-23T02:48:15.819Z,1012.50
2018-11-23T02:49:15.742Z,1012.54
2018-11-23T02:50:15.732Z,1012.55
2018-11-23T02:51:15.722Z,1012.53
2018-11-23T02:52:15.706Z,1012.54
2018-11-23T02:53:15.726Z,1012.55
2018-11-23T02:54:15.741Z,1012.55
2018-11-23T02:55:15.676Z,1012.55
2018-11-23T02:56:15.671Z,1012.53
2018-11-23T02:57:15.653Z,1012.51
2018-11-23T02:58:15.647Z,1012.48
2018-11-23T02:59:15.686Z,1012.52
2018-11-23T03:00:15.634Z,1012.53
2018-11-23T03:01:15.676Z,1012.50
2018-11-23T03:02:15.599Z,1012.51
2018-11-23T03:03:15.597Z,1012.52
2018-11-23T03:04:15.610Z,1012.51
2018-11-23T03:05:15.567Z,1012.51
2018-11-23T03:06:15.559Z,1012.47
2018-11-23T03:07:15.543Z,1012.44
2018-11-23T03:08:15.686Z,1012.47
2018-11-23T03:09:15.551Z,1012.44
2018-11-23T03:10:15.510Z,1012.46
2018-11-23T03:11:15.500Z,1012.46
2018-11-23T03:12:15.487Z,1012.43
2018-11-23T03:13:15.483Z,1012.41
2018-11-23T03:14:15.624Z,1012.40
2018-11-23T03:15:15.467Z,1012.38
2018-11-23T03:16:15.456Z,1012.38
2018-11-23T03:17:15.458Z,1012.38
2018-11-23T03:18:15.425Z,1012.36
2018-11-23T03:19:15.461Z,1012.37
2018-11-23T03:20:15.400Z,1012.38
2018-11-23T03:21:15.457Z,1012.35
2018-11-23T03:22:15.385Z,1012.39
2018-11-23T03:23:15.382Z,1012.33
2018-11-23T03:24:15.417Z,1012.30
2018-11-23T03:25:15.353Z,1012.30
2018-11-23T03:26:15.336Z,1012.35
2018-11-23T03:27:15.523Z,1012.32
2018-11-23T03:28:15.322Z,1012.29
2018-11-23T03:29:15.336Z,1012.30
2018-11-23T03:30:15.296Z,1012.34
2018-11-23T03:31:15.280Z,1012.36
2018-11-23T03:32:15.271Z,1012.35
2018-11-23T03:33:15.289Z,1012.39
2018-11-23T03:34:15.284Z,1012.36
2018-11-23T03:35:15.266Z,1012.37
2018-11-23T03:36:15.229Z,1012.32
2018-11-23T03:37:15.225Z,1012.35
2018-11-23T03:38:15.218Z,1012.34
2018-11-23T03:39:15.243Z,1012.33
2018-11-23T03:40:15.197Z,1012.36
2018-11-23T03:41:15.235Z,1012.34
2018-11-23T03:42:15.173Z,1012.37
2018-11-23T03:43:15.151Z,1012.31
2018-11-23T03:44:15.216Z,1012.33
2018-11-23T03:45:15.163Z,1012.31
2018-11-23T03:46:15.748Z,1012.30
2018-11-23T03:47:15.116Z,1012.29
2018-11-23T03:48:15.095Z,1012.29
2018-11-23T03:49:15.186Z,1012.25
2018-11-23T03:50:15.086Z,1012.23
2018-11-23T03:51:15.097Z,1012.28
2018-11-23T03:52:15.072Z,1012.26
2018-11-23T03:53:15.048Z,1012.24
2018-11-23T03:54:15.079Z,1012.36
2018-11-23T03:55:15.106Z,1012.29
2018-11-23T03:56:15.008Z,1012.26
2018-11-23T03:57:15.010Z,1012.27
2018-11-23T03:58:15.005Z,1012.29
2018-11-23T03:59:15.022Z,1012.26
2018-11-23T04:00:17.331Z,1012.30
2018-11-23T04:01:14.957Z,1012.25
2018-11-23T04:02:14.950Z,1012.26
2018-11-23T04:03:14.948Z,1012.24
2018-11-23T04:04:15.040Z,1012.32
2018-11-23T04:05:14.909Z,1012.27
2018-11-23T04:06:14.900Z,1012.32
2018-11-23T04:07:14.900Z,1012.32
2018-11-23T04:08:14.943Z,1012.28
2018-11-23T04:09:14.895Z,1012.30
2018-11-23T04:10:14.905Z,1012.26
2018-11-23T04:11:14.845Z,1012.32
2018-11-23T04:12:14.847Z,1012.30
2018-11-23T04:13:14.835Z,1012.26
2018-11-23T04:14:14.858Z,1012.32
2018-11-23T04:15:14.801Z,1012.37
2018-11-23T04:16:14.854Z,1012.37
2018-11-23T04:17:14.792Z,1012.40
2018-11-23T04:18:14.766Z,1012.31
2018-11-23T04:19:14.784Z,1012.38
2018-11-23T04:20:14.759Z,1012.37
2018-11-23T04:21:14.751Z,1012.38
2018-11-23T04:22:14.746Z,1012.39
2018-11-23T04:23:14.802Z,1012.37
2018-11-23T04:24:14.807Z,1012.40
2018-11-23T04:25:14.697Z,1012.45
2018-11-23T04:26:14.691Z,1012.42
2018-11-23T04:27:14.685Z,1012.40
2018-11-23T04:28:14.680Z,1012.45
2018-11-23T04:29:14.650Z,1012.42
2018-11-23T04:30:14.699Z,1012.43
2018-11-23T04:31:14.635Z,1012.47
2018-11-23T04:32:14.616Z,1012.43
2018-11-23T04:33:14.638Z,1012.48
2018-11-23T04:34:14.594Z,1012.47
2018-11-23T04:35:14.623Z,1012.52
2018-11-23T04:36:14.634Z,1012.47
2018-11-23T04:37:14.573Z,1012.47
2018-11-23T04:38:14.559Z,1012.47
2018-11-23T04:39:14.555Z,1012.43
2018-11-23T04:40:14.553Z,1012.43
2018-11-23T04:41:14.539Z,1012.44
2018-11-23T04:42:14.509Z,1012.42
2018-11-23T04:43:14.504Z,1012.39
2018-11-23T04:44:14.553Z,1012.41
2018-11-23T04:45:14.511Z,1012.40
2018-11-23T04:46:14.473Z,1012.41
2018-11-23T04:47:14.473Z,1012.41
2018-11-23T04:48:14.469Z,1012.40
2018-11-23T04:49:14.437Z,1012.39
2018-11-23T04:50:14.524Z,1012.43
2018-11-23T04:51:14.419Z,1012.38
2018-11-23T04:52:14.408Z,1012.39
2018-11-23T04:53:14.394Z,1012.37
2018-11-23T04:54:14.374Z,1012.40
2018-11-23T04:55:14.425Z,1012.42
2018-11-23T04:56:14.384Z,1012.41
2018-11-23T04:57:14.347Z,1012.44
2018-11-23T04:58:14.356Z,1012.42
2018-11-23T04:59:14.343Z,1012.44
2018-11-23T05:00:14.384Z,1012.39
2018-11-23T05:01:14.313Z,1012.36
2018-11-23T05:02:14.336Z,1012.37
2018-11-23T05:03:14.335Z,1012.40
2018-11-23T05:04:14.272Z,1012.36
2018-11-23T05:05:14.311Z,1012.34
2018-11-23T05:06:14.260Z,1012.40
2018-11-23T05:07:14.236Z,1012.37
2018-11-23T05:08:14.227Z,1012.40
2018-11-23T05:09:14.224Z,1012.35
2018-11-23T05:10:14.251Z,1012.30
2018-11-23T05:11:14.340Z,1012.25
2018-11-23T05:12:14.199Z,1012.26
2018-11-23T05:13:14.193Z,1012.20
2018-11-23T05:14:14.165Z,1012.25
2018-11-23T05:15:14.195Z,1012.23
2018-11-23T05:16:14.138Z,1012.22
2018-11-23T05:17:14.132Z,1012.22
2018-11-23T05:18:14.145Z,1012.28
2018-11-23T05:19:14.120Z,1012.22
2018-11-23T05:20:14.127Z,1012.23
2018-11-23T05:21:14.114Z,1012.25
2018-11-23T05:22:14.079Z,1012.25
2018-11-23T05:23:14.066Z,1012.26
2018-11-23T05:24:14.061Z,1012.24
2018-11-23T05:25:14.079Z,1012.20
2018-11-23T05:26:14.058Z,1012.23
2018-11-23T05:27:14.014Z,1012.25
2018-11-23T05:28:14.013Z,1012.29
2018-11-23T05:29:13.992Z,1012.29
2018-11-23T05:30:14.025Z,1012.26
2018-11-23T05:31:13.982Z,1012.23
2018-11-23T05:32:13.991Z,1012.25
2018-11-23T05:33:14.054Z,1012.27
2018-11-23T05:34:13.944Z,1012.21
2018-11-23T05:35:14.040Z,1012.25
2018-11-23T05:36:13.926Z,1012.23
2018-11-23T05:37:13.909Z,1012.26
2018-11-23T05:38:13.896Z,1012.23
2018-11-23T05:39:13.921Z,1012.26
2018-11-23T05:40:13.904Z,1012.24
2018-11-23T05:41:13.866Z,1012.27
2018-11-23T05:42:13.851Z,1012.26
2018-11-23T05:43:13.877Z,1012.22
2018-11-23T05:44:13.835Z,1012.23
2018-11-23T05:45:13.847Z,1012.22
2018-11-23T05:46:13.832Z,1012.22
2018-11-23T05:47:13.796Z,1012.22
2018-11-23T05:48:13.783Z,1012.23
2018-11-23T05:49:13.801Z,1012.22
2018-11-23T05:50:13.818Z,1012.18
2018-11-23T05:51:14.034Z,1012.17
2018-11-23T05:52:13.745Z,1012.21
2018-11-23T05:53:13.765Z,1012.18
2018-11-23T05:54:13.729Z,1012.21
2018-11-23T05:55:13.835Z,1012.20
2018-11-23T05:56:13.713Z,1012.20
2018-11-23T05:57:13.692Z,1012.18
2018-11-23T05:58:13.682Z,1012.16
2018-11-23T05:59:13.803Z,1012.11
2018-11-23T06:00:13.705Z,1012.10
2018-11-23T06:01:13.675Z,1012.10
2018-11-23T06:02:13.683Z,1012.10
2018-11-23T06:03:13.638Z,1012.09
2018-11-23T06:04:13.616Z,1012.05
2018-11-23T06:05:13.601Z,1012.03
2018-11-23T06:06:13.690Z,1012.02
2018-11-23T06:07:13.647Z,1012.02
2018-11-23T06:08:13.666Z,1012.01
2018-11-23T06:09:13.557Z,1011.98
2018-11-23T06:10:13.556Z,1011.99
2018-11-23T06:11:13.563Z,1011.97
2018-11-23T06:12:13.562Z,1011.98
2018-11-23T06:13:13.523Z,1011.96
2018-11-23T06:14:13.504Z,1011.93
2018-11-23T06:15:13.539Z,1011.91
2018-11-23T06:16:13.534Z,1011.88
2018-11-23T06:17:13.468Z,1011.88
2018-11-23T06:18:13.457Z,1011.92
2018-11-23T06:19:13.451Z,1011.94
2018-11-23T06:20:13.455Z,1011.91
2018-11-23T06:21:13.456Z,1011.96
2018-11-23T06:22:13.418Z,1011.89
2018-11-23T06:23:13.401Z,1011.92
2018-11-23T06:24:13.400Z,1011.89
2018-11-23T06:25:13.380Z,1011.94
2018-11-23T06:26:13.407Z,1011.94
2018-11-23T06:27:13.371Z,1011.96
2018-11-23T06:28:13.347Z,1011.98
2018-11-23T06:29:13.364Z,1011.97
2018-11-23T06:30:13.349Z,1011.99
2018-11-23T06:31:13.357Z,1011.97
2018-11-23T06:32:13.334Z,1011.95
2018-11-23T06:33:13.295Z,1011.95
2018-11-23T06:34:13.285Z,1011.96
2018-11-23T06:35:13.295Z,1011.99
2018-11-23T06:36:13.286Z,1011.98
2018-11-23T06:37:13.250Z,1011.99
2018-11-23T06:38:13.285Z,1011.95
2018-11-23T06:39:13.247Z,1011.98
2018-11-23T06:40:13.221Z,1012.00
2018-11-23T06:41:13.254Z,1012.04
2018-11-23T06:42:13.202Z,1012.08
2018-11-23T06:43:13.209Z,1012.09
2018-11-23T06:44:13.175Z,1012.08
2018-11-23T06:45:13.181Z,1012.10
2018-11-23T06:46:13.179Z,1012.13
2018-11-23T06:47:13.175Z,1012.17
2018-11-23T06:48:13.140Z,1012.20
2018-11-23T06:49:13.143Z,1012.19
2018-11-23T06:50:13.138Z,1012.21
2018-11-23T06:51:13.136Z,1012.25
2018-11-23T06:52:13.092Z,1012.27
2018-11-23T06:53:13.088Z,1012.26
2018-11-23T06:54:14.490Z,1012.26
2018-11-23T06:55:13.068Z,1012.25
2018-11-23T06:56:13.079Z,1012.26
2018-11-23T06:57:13.058Z,1012.21
2018-11-23T06:58:13.032Z,1012.28
2018-11-23T06:59:13.019Z,1012.26
2018-11-23T07:00:13.012Z,1012.21
2018-11-23T07:01:12.992Z,1012.25
2018-11-23T07:02:13.030Z,1012.22
2018-11-23T07:03:12.966Z,1012.24
2018-11-23T07:04:12.970Z,1012.27
2018-11-23T07:05:12.945Z,1012.26
2018-11-23T07:06:12.952Z,1012.24
2018-11-23T07:07:12.971Z,1012.26
2018-11-23T07:08:12.983Z,1012.25
2018-11-23T07:09:12.913Z,1012.24
2018-11-23T07:10:12.895Z,1012.26
2018-11-23T07:11:12.894Z,1012.30
2018-11-23T07:12:12.912Z,1012.27
2018-11-23T07:13:12.870Z,1012.29
2018-11-23T07:14:12.876Z,1012.31
2018-11-23T07:15:12.842Z,1012.27
2018-11-23T07:16:12.894Z,1012.28
2018-11-23T07:17:12.851Z,1012.30
2018-11-23T07:18:12.803Z,1012.29
2018-11-23T07:19:12.808Z,1012.33
2018-11-23T07:20:12.796Z,1012.30
2018-11-23T07:21:12.777Z,1012.35
2018-11-23T07:22:12.871Z,1012.33
2018-11-23T07:23:12.749Z,1012.31
2018-11-23T07:24:12.740Z,1012.35
2018-11-23T07:25:12.747Z,1012.31
2018-11-23T07:26:12.714Z,1012.28
2018-11-23T07:27:12.759Z,1012.31
2018-11-23T07:28:15.616Z,1012.31
2018-11-23T07:29:12.687Z,1012.30
2018-11-23T07:30:12.707Z,1012.34
2018-11-23T07:31:12.661Z,1012.35
2018-11-23T07:32:12.697Z,1012.34
2018-11-23T07:33:12.638Z,1012.32
2018-11-23T07:34:12.629Z,1012.34
2018-11-23T07:35:12.627Z,1012.31
2018-11-23T07:36:12.664Z,1012.32
2018-11-23T07:37:12.624Z,1012.30
2018-11-23T07:38:12.588Z,1012.32
2018-11-23T07:39:12.576Z,1012.25
2018-11-23T07:40:12.565Z,1012.28
2018-11-23T07:41:12.571Z,1012.27
2018-11-23T07:42:12.666Z,1012.28
2018-11-23T07:43:12.530Z,1012.22
2018-11-23T07:44:12.518Z,1012.22
2018-11-23T07:45:12.518Z,1012.15
2018-11-23T07:46:12.503Z,1012.16
2018-11-23T07:47:12.517Z,1012.20
2018-11-23T07:48:12.508Z,1012.19
2018-11-23T07:49:12.463Z,1012.21
2018-11-23T07:50:12.458Z,1012.16
2018-11-23T07:51:12.441Z,1012.22
2018-11-23T07:52:12.472Z,1012.21
2018-11-23T07:53:12.420Z,1012.26
2018-11-23T07:54:12.435Z,1012.24
2018-11-23T07:55:12.404Z,1012.33
2018-11-23T07:56:12.392Z,1012.33
2018-11-23T07:57:12.402Z,1012.35
2018-11-23T07:58:12.366Z,1012.37
2018-11-23T07:59:12.360Z,1012.34
2018-11-23T08:00:12.398Z,1012.42
2018-11-23T08:01:12.334Z,1012.35
2018-11-23T08:02:12.359Z,1012.40
2018-11-23T08:03:12.339Z,1012.38
2018-11-23T08:04:12.304Z,1012.37
2018-11-23T08:05:12.290Z,1012.33
2018-11-23T08:06:12.290Z,1012.43
2018-11-23T08:07:12.300Z,1012.39
2018-11-23T08:08:12.270Z,1012.29
2018-11-23T08:09:12.274Z,1012.35
2018-11-23T08:10:12.245Z,1012.34
2018-11-23T08:11:12.248Z,1012.31
2018-11-23T08:12:12.252Z,1012.31
2018-11-23T08:13:12.238Z,1012.35
2018-11-23T08:14:12.193Z,1012.34
2018-11-23T08:15:12.183Z,1012.38
2018-11-23T08:16:12.171Z,1012.36
2018-11-23T08:17:12.169Z,1012.35
2018-11-23T08:18:12.200Z,1012.27
2018-11-23T08:19:12.135Z,1012.21
2018-11-23T08:20:12.137Z,1012.24
2018-11-23T08:21:12.127Z,1012.29
2018-11-23T08:22:12.154Z,1012.26
2018-11-23T08:23:12.120Z,1012.26
2018-11-23T08:24:12.108Z,1012.22
2018-11-23T08:25:12.121Z,1012.22
2018-11-23T08:26:12.059Z,1012.21
2018-11-23T08:27:12.050Z,1012.19
2018-11-23T08:28:12.073Z,1012.19
2018-11-23T08:29:12.029Z,1012.19
2018-11-23T08:30:12.017Z,1012.22
2018-11-23T08:31:12.003Z,1012.21
2018-11-23T08:32:12.051Z,1012.21
2018-11-23T08:33:12.023Z,1012.12
2018-11-23T08:34:11.978Z,1012.15
2018-11-23T08:35:11.960Z,1012.17
2018-11-23T08:36:11.951Z,1012.12
2018-11-23T08:37:11.934Z,1012.14
2018-11-23T08:38:11.981Z,1012.08
2018-11-23T08:39:11.922Z,1012.08
2018-11-23T08:40:11.912Z,1012.05
2018-11-23T08:41:11.904Z,1012.06
2018-11-23T08:42:11.888Z,1012.02
2018-11-23T08:43:11.913Z,1012.05
2018-11-23T08:44:11.918Z,1012.04
2018-11-23T08:45:11.859Z,1012.01
2018-11-23T08:46:11.834Z,1012.05
2018-11-23T08:47:11.826Z,1012.07
2018-11-23T08:48:11.856Z,1012.05
2018-11-23T08:49:11.800Z,1012.01
2018-11-23T08:50:11.801Z,1011.99
2018-11-23T08:51:11.778Z,1011.99
2018-11-23T08:52:11.809Z,1011.97
2018-11-23T08:53:11.785Z,1012.00
2018-11-23T08:54:11.750Z,1011.99
2018-11-23T08:55:11.739Z,1012.01
2018-11-23T08:56:11.724Z,1011.97
2018-11-23T08:57:11.715Z,1012.00
2018-11-23T08:58:11.728Z,1011.95
2018-11-23T08:59:11.714Z,1011.95
2018-11-23T09:00:11.680Z,1011.97
2018-11-23T09:01:11.668Z,1011.96
2018-11-23T09:02:11.658Z,1011.89
2018-11-23T09:03:11.669Z,1011.92
2018-11-23T09:04:11.634Z,1011.91
2018-11-23T09:05:11.624Z,1011.92
2018-11-23T09:06:11.670Z,1011.91
2018-11-23T09:07:11.608Z,1011.95
2018-11-23T09:08:11.616Z,1011.92
2018-11-23T09:09:11.594Z,1011.90
2018-11-23T09:10:11.576Z,1011.82
2018-11-23T09:11:11.553Z,1011.85
2018-11-23T09:12:11.556Z,1011.84
2018-11-23T09:13:11.611Z,1011.82
2018-11-23T09:14:11.542Z,1011.86
2018-11-23T09:15:11.509Z,1011.83
2018-11-23T09:16:11.524Z,1011.84
2018-11-23T09:17:11.519Z,1011.80
2018-11-23T09:18:11.499Z,1011.76
2018-11-23T09:19:11.472Z,1011.74
2018-11-23T09:20:11.460Z,1011.78
2018-11-23T09:21:11.479Z,1011.73
2018-11-23T09:22:11.438Z,1011.76
2018-11-23T09:23:11.462Z,1011.72
2018-11-23T09:24:11.407Z,1011.71
2018-11-23T09:25:11.397Z,1011.71
2018-11-23T09:26:11.391Z,1011.68
2018-11-23T09:27:11.395Z,1011.66
2018-11-23T09:28:11.396Z,1011.71
2018-11-23T09:29:11.365Z,1011.74
2018-11-23T09:30:11.339Z,1011.72
2018-11-23T09:31:11.328Z,1011.66
2018-11-23T09:32:11.355Z,1011.65
2018-11-23T09:33:11.394Z,1011.64
2018-11-23T09:34:11.298Z,1011.67
2018-11-23T09:35:11.284Z,1011.61
2018-11-23T09:36:11.272Z,1011.62
2018-11-23T09:37:11.263Z,1011.62
2018-11-23T09:38:11.281Z,1011.60
2018-11-23T09:39:11.241Z,1011.59
2018-11-23T09:40:11.286Z,1011.60
2018-11-23T09:41:11.217Z,1011.64
2018-11-23T09:42:11.208Z,1011.61
2018-11-23T09:43:11.210Z,1011.63
2018-11-23T09:44:11.385Z,1011.62
2018-11-23T09:45:11.178Z,1011.57
2018-11-23T09:46:11.162Z,1011.58
2018-11-23T09:47:11.153Z,1011.58
2018-11-23T09:48:11.192Z,1011.58
2018-11-23T09:49:11.164Z,1011.58
2018-11-23T09:50:11.124Z,1011.52
2018-11-23T09:51:11.121Z,1011.53
2018-11-23T09:52:11.098Z,1011.56
2018-11-23T09:53:11.089Z,1011.55
2018-11-23T09:54:11.104Z,1011.54
2018-11-23T09:55:11.083Z,1011.53
2018-11-23T09:56:11.165Z,1011.53
2018-11-23T09:57:11.053Z,1011.51
2018-11-23T09:58:11.034Z,1011.60
2018-11-23T09:59:11.046Z,1011.58
2018-11-23T10:00:11.013Z,1011.58
2018-11-23T10:01:11.009Z,1011.57
2018-11-23T10:02:11.013Z,1011.59
2018-11-23T10:03:11.089Z,1011.58
2018-11-23T10:04:11.006Z,1011.59
2018-11-23T10:05:10.960Z,1011.60
2018-11-23T10:06:10.947Z,1011.61
2018-11-23T10:07:10.944Z,1011.58
2018-11-23T10:08:10.917Z,1011.54
2018-11-23T10:09:11.000Z,1011.50
2018-11-23T10:10:10.907Z,1011.48
2018-11-23T10:11:10.894Z,1011.48
2018-11-23T10:12:10.895Z,1011.47
2018-11-23T10:13:10.876Z,1011.44
2018-11-23T10:14:10.884Z,1011.46
2018-11-23T10:15:10.999Z,1011.41
2018-11-23T10:16:10.868Z,1011.39
2018-11-23T10:17:10.817Z,1011.36
2018-11-23T10:18:10.812Z,1011.26
2018-11-23T10:19:10.825Z,1011.28
2018-11-23T10:20:10.798Z,1011.23
2018-11-23T10:21:10.794Z,1011.22
2018-11-23T10:22:10.768Z,1011.23
2018-11-23T10:23:10.749Z,1011.23
2018-11-23T10:24:10.766Z,1011.19
2018-11-23T10:25:10.727Z,1011.19
2018-11-23T10:26:10.729Z,1011.17
2018-11-23T10:27:10.820Z,1011.18
2018-11-23T10:28:10.709Z,1011.19
2018-11-23T10:29:10.717Z,1011.23
2018-11-23T10:30:10.693Z,1011.24
2018-11-23T10:31:10.662Z,1011.18
2018-11-23T10:32:10.674Z,1011.19
2018-11-23T10:33:10.637Z,1011.18
2018-11-23T10:34:10.885Z,1011.14
2018-11-23T10:35:10.621Z,1011.15
2018-11-23T10:36:10.615Z,1011.06
2018-11-23T10:37:10.607Z,1011.05
2018-11-23T10:38:10.618Z,1011.07
2018-11-23T10:39:10.622Z,1011.07
2018-11-23T10:40:10.586Z,1011.03
2018-11-23T10:41:10.580Z,1011.05
2018-11-23T10:42:10.540Z,1011.04
2018-11-23T10:43:10.530Z,1011.02
2018-11-23T10:44:10.600Z,1010.98
2018-11-23T10:45:10.508Z,1011.00
2018-11-23T10:46:10.507Z,1011.00
2018-11-23T10:47:10.486Z,1011.06
2018-11-23T10:48:10.478Z,1010.96
2018-11-23T10:49:10.590Z,1011.00
2018-11-23T10:50:10.468Z,1011.01
2018-11-23T10:51:10.439Z,1010.95
2018-11-23T10:52:10.425Z,1010.92
2018-11-23T10:53:10.416Z,1010.89
2018-11-23T10:54:10.434Z,1010.91
2018-11-23T10:55:10.454Z,1010.89
2018-11-23T10:56:10.570Z,1010.89
2018-11-23T10:57:10.370Z,1010.91
2018-11-23T10:58:10.360Z,1010.89
2018-11-23T10:59:10.381Z,1010.95
2018-11-23T11:00:10.341Z,1010.96
2018-11-23T11:01:10.342Z,1010.94
2018-11-23T11:02:10.382Z,1010.87
2018-11-23T11:03:10.473Z,1010.88
2018-11-23T11:04:10.339Z,1010.81
2018-11-23T11:05:10.297Z,1010.83
2018-11-23T11:06:10.277Z,1010.78
2018-11-23T11:07:10.259Z,1010.80
2018-11-23T11:08:10.247Z,1010.73
2018-11-23T11:09:10.519Z,1010.74
2018-11-23T11:10:10.269Z,1010.68
2018-11-23T11:11:13.513Z,1010.64
2018-11-23T11:12:10.207Z,1010.68
2018-11-23T11:13:10.217Z,1010.67
2018-11-23T11:14:10.195Z,1010.62
2018-11-23T11:15:10.206Z,1010.64
2018-11-23T11:16:10.159Z,1010.63
2018-11-23T11:17:10.149Z,1010.55
2018-11-23T11:18:10.187Z,1010.57
2018-11-23T11:19:10.137Z,1010.50
2018-11-23T11:20:10.182Z,1010.50
2018-11-23T11:21:10.120Z,1010.48
2018-11-23T11:22:10.102Z,1010.52
2018-11-23T11:23:10.101Z,1010.46
2018-11-23T11:24:10.143Z,1010.49
2018-11-23T11:25:10.097Z,1010.40
2018-11-23T11:26:10.050Z,1010.38
2018-11-23T11:27:10.070Z,1010.39
2018-11-23T11:28:10.029Z,1010.38
2018-11-23T11:29:10.013Z,1010.33
2018-11-23T11:30:10.058Z,1010.35
2018-11-23T11:31:10.086Z,1010.29
2018-11-23T11:32:09.991Z,1010.19
2018-11-23T11:33:09.969Z,1010.19
2018-11-23T11:34:09.979Z,1010.22
2018-11-23T11:35:10.148Z,1010.17
2018-11-23T11:36:09.945Z,1010.19
2018-11-23T11:37:10.001Z,1010.13
2018-11-23T11:38:09.930Z,1010.11
2018-11-23T11:39:09.909Z,1010.09
2018-11-23T11:40:09.921Z,1010.11
2018-11-23T11:41:09.883Z,1010.07
2018-11-23T11:42:09.910Z,1010.06
2018-11-23T11:43:09.869Z,1010.07
2018-11-23T11:44:09.909Z,1010.06
2018-11-23T11:45:09.867Z,1010.07
2018-11-23T11:46:09.838Z,1009.98
2018-11-23T11:47:09.819Z,1009.99
2018-11-23T11:48:09.819Z,1009.98
2018-11-23T11:49:09.797Z,1009.98
2018-11-23T11:50:09.849Z,1009.94
2018-11-23T11:51:09.807Z,1009.96
2018-11-23T11:52:09.775Z,1009.94
2018-11-23T11:53:09.753Z,1009.92
2018-11-23T11:54:09.757Z,1009.94
2018-11-23T11:55:09.737Z,1009.91
2018-11-23T11:56:09.919Z,1009.88
2018-11-23T11:57:09.721Z,1009.90
2018-11-23T11:58:09.723Z,1009.91
2018-11-23T11:59:09.804Z,1009.88
2018-11-23T12:00:09.691Z,1009.88
2018-11-23T12:01:09.706Z,1009.89
2018-11-23T12:02:10.329Z,1009.89
2018-11-23T12:03:09.720Z,1009.89
2018-11-23T12:04:09.816Z,1009.86
2018-11-23T12:05:09.700Z,1009.85